createdAt,value
2023-03-21T00:01:02.245Z,34.20
2023-03-21T00:05:13.336Z,34.21
2023-03-21T00:09:03.210Z,34.20
2023-03-21T00:13:02.163Z,34.20
2023-03-21T00:17:02.121Z,34.16
2023-03-21T00:21:35.637Z,34.10
2023-03-21T00:25:03.042Z,34.12
2023-03-21T00:29:02.425Z,34.07
2023-03-21T00:33:08.929Z,34.11
2023-03-21T00:37:02.952Z,34.08
2023-03-21T00:41:04.929Z,34.09
2023-03-21T00:45:02.864Z,34.01
2023-03-21T00:49:01.851Z,34.04
2023-03-21T00:53:01.779Z,34.04
2023-03-21T00:57:01.758Z,34.01
2023-03-21T01:01:01.873Z,33.97
2023-03-21T01:05:01.802Z,33.97
2023-03-21T01:09:01.877Z,33.88
2023-03-21T01:13:02.045Z,33.89
2023-03-21T01:17:02.016Z,33.87
2023-03-21T01:21:02.041Z,33.89
2023-03-21T01:25:19.332Z,33.90
2023-03-21T01:29:03.073Z,33.90
2023-03-21T01:33:02.420Z,33.91
2023-03-21T01:37:02.087Z,33.89
2023-03-21T01:41:06.175Z,33.89
2023-03-21T01:45:02.957Z,33.87
2023-03-21T01:49:01.998Z,33.86
2023-03-21T01:53:01.911Z,33.87
2023-03-21T01:57:01.828Z,33.87
2023-03-21T02:01:02.057Z,33.84
2023-03-21T02:05:01.830Z,33.77
2023-03-21T02:09:02.475Z,33.80
2023-03-21T02:13:01.980Z,33.81
2023-03-21T02:17:02.000Z,33.77
2023-03-21T02:21:02.036Z,33.77
2023-03-21T02:25:06.169Z,33.74
2023-03-21T02:29:03.114Z,33.75
2023-03-21T02:33:02.090Z,33.80
2023-03-21T02:37:02.057Z,33.77
2023-03-21T02:41:05.364Z,33.77
2023-03-21T02:45:03.452Z,33.75
2023-03-21T02:49:01.915Z,33.75
2023-03-21T02:53:01.816Z,33.71
2023-03-21T02:57:01.838Z,33.70
2023-03-21T03:01:02.938Z,33.69
2023-03-21T03:05:06.512Z,33.72
2023-03-21T03:09:03.281Z,33.70
2023-03-21T03:13:01.728Z,33.70
2023-03-21T03:17:01.700Z,33.69
2023-03-21T03:21:04.490Z,33.68
2023-03-21T03:25:12.599Z,33.68
2023-03-21T03:29:02.610Z,33.69
2023-03-21T03:33:01.950Z,33.64
2023-03-21T03:37:01.557Z,33.61
2023-03-21T03:41:01.483Z,33.61
2023-03-21T03:45:01.400Z,33.61
2023-03-21T03:49:01.476Z,33.59
2023-03-21T03:53:07.134Z,33.61
2023-03-21T03:57:02.429Z,33.59
2023-03-21T04:01:01.447Z,33.56
2023-03-21T04:05:01.352Z,33.59
2023-03-21T04:09:03.469Z,33.58
2023-03-21T04:13:01.267Z,33.58
2023-03-21T04:17:01.290Z,33.61
2023-03-21T04:21:01.224Z,33.58
2023-03-21T04:25:02.045Z,33.56
2023-03-21T04:29:01.161Z,33.51
2023-03-21T04:33:02.006Z,33.53
2023-03-21T04:37:01.106Z,33.53
2023-03-21T04:41:01.027Z,33.56
2023-03-21T04:45:01.054Z,33.55
2023-03-21T04:49:00.970Z,33.52
2023-03-21T04:53:00.940Z,33.51
2023-03-21T04:57:00.859Z,33.50
2023-03-21T05:01:00.884Z,33.50
2023-03-21T05:05:00.842Z,33.49
2023-03-21T05:09:00.839Z,33.42
2023-03-21T05:13:01.058Z,33.43
2023-03-21T05:17:01.008Z,33.45
2023-03-21T05:21:01.548Z,33.41
2023-03-21T05:25:01.072Z,33.39
2023-03-21T05:29:01.096Z,33.41
2023-03-21T05:33:01.218Z,33.43
2023-03-21T05:37:01.225Z,33.40
2023-03-21T05:41:01.515Z,33.37
2023-03-21T05:45:01.248Z,33.33
2023-03-21T05:49:01.254Z,33.25
2023-03-21T05:53:01.620Z,33.21
2023-03-21T05:57:01.378Z,33.23
2023-03-21T06:01:01.546Z,33.21
2023-03-21T06:05:01.369Z,33.21
2023-03-21T06:09:02.171Z,33.17
2023-03-21T06:13:01.386Z,33.14
2023-03-21T06:17:01.363Z,33.13
2023-03-21T06:21:01.399Z,33.05
2023-03-21T06:25:02.153Z,33.08
2023-03-21T06:29:01.370Z,33.09
2023-03-21T06:33:01.480Z,33.02
2023-03-21T06:37:01.587Z,33.52
2023-03-21T06:41:01.622Z,33.78
2023-03-21T06:45:01.590Z,33.11
2023-03-21T06:49:01.428Z,32.64
2023-03-21T06:53:01.474Z,33.48
2023-03-21T06:57:01.674Z,33.04
2023-03-21T07:01:02.123Z,33.03
2023-03-21T07:05:02.036Z,33.18
2023-03-21T07:09:02.034Z,33.34
2023-03-21T07:13:01.997Z,34.09
2023-03-21T07:17:01.941Z,34.29
2023-03-21T07:21:01.943Z,34.05
2023-03-21T07:25:05.011Z,34.86
2023-03-21T07:29:01.854Z,35.56
2023-03-21T07:33:02.690Z,35.45
2023-03-21T07:37:01.747Z,35.61
2023-03-21T07:41:01.726Z,36.04
2023-03-21T07:45:01.678Z,36.56
2023-03-21T07:49:01.645Z,37.05
2023-03-21T07:53:01.725Z,37.51
2023-03-21T07:57:01.665Z,37.77
2023-03-21T08:01:01.515Z,37.98
2023-03-21T08:05:01.546Z,38.48
2023-03-21T08:09:01.570Z,38.62
2023-03-21T08:13:02.097Z,39.01
2023-03-21T08:17:01.728Z,39.35
2023-03-21T08:21:01.862Z,39.67
2023-03-21T08:25:02.067Z,39.94
2023-03-21T08:29:02.257Z,40.37
2023-03-21T08:33:02.932Z,40.40
2023-03-21T08:37:02.511Z,39.84
2023-03-21T08:41:02.753Z,39.14
2023-03-21T08:45:03.018Z,39.05
2023-03-21T08:49:03.142Z,38.97
2023-03-21T08:53:03.008Z,38.84
2023-03-21T08:57:03.607Z,38.68
2023-03-21T09:01:03.165Z,38.55
2023-03-21T09:05:03.217Z,38.34
2023-03-21T09:09:06.356Z,38.20
2023-03-21T09:13:03.132Z,38.01
2023-03-21T09:17:03.167Z,37.88
2023-03-21T09:21:03.434Z,37.70
2023-03-21T09:25:03.158Z,37.48
2023-03-21T09:29:03.389Z,37.31
2023-03-21T09:33:02.932Z,37.13
2023-03-21T09:37:03.018Z,36.91
2023-03-21T09:41:02.933Z,36.76
2023-03-21T09:45:02.966Z,37.23
2023-03-21T09:49:02.836Z,37.47
2023-03-21T09:53:03.685Z,37.28
2023-03-21T09:57:02.725Z,36.65
2023-03-21T10:01:02.782Z,36.05
2023-03-21T10:05:02.817Z,35.99
2023-03-21T10:09:03.211Z,35.92
2023-03-21T10:13:02.706Z,35.84
2023-03-21T10:17:02.631Z,35.74
2023-03-21T10:21:03.425Z,35.67
2023-03-21T10:25:02.658Z,35.59
2023-03-21T10:29:02.746Z,35.49
2023-03-21T10:33:02.746Z,35.46
2023-03-21T10:37:04.102Z,36.16
2023-03-21T10:41:03.126Z,36.91
2023-03-21T10:45:02.805Z,37.33
2023-03-21T10:49:02.880Z,37.61
2023-03-21T10:53:02.738Z,37.93
2023-03-21T10:57:02.670Z,38.34
2023-03-21T11:01:02.717Z,38.90
2023-03-21T11:05:02.756Z,39.41
2023-03-21T11:09:03.543Z,39.53
2023-03-21T11:13:02.590Z,39.30
2023-03-21T11:17:02.533Z,39.75
2023-03-21T11:21:02.616Z,40.32
2023-03-21T11:25:03.199Z,40.74
2023-03-21T11:29:02.713Z,40.91
2023-03-21T11:33:05.202Z,38.97
2023-03-21T11:37:02.295Z,35.15
2023-03-21T11:41:02.270Z,36.50
2023-03-21T11:45:02.232Z,37.00
2023-03-21T11:49:03.192Z,37.23
2023-03-21T11:53:02.367Z,37.45
2023-03-21T11:57:02.267Z,37.58
2023-03-21T12:01:02.130Z,38.01
2023-03-21T12:05:02.052Z,37.74
2023-03-21T12:09:02.029Z,37.89
2023-03-21T12:13:02.076Z,37.58
2023-03-21T12:17:02.020Z,37.93
2023-03-21T12:21:02.032Z,38.05
2023-03-21T12:25:02.604Z,37.89
2023-03-21T12:29:01.887Z,37.67
2023-03-21T12:33:01.978Z,37.79
2023-03-21T12:37:01.753Z,37.92
2023-03-21T12:41:01.738Z,37.89
2023-03-21T12:45:06.076Z,37.90
2023-03-21T12:49:02.639Z,37.78
2023-03-21T12:53:01.704Z,37.65
2023-03-21T12:57:01.733Z,37.57
2023-03-21T13:01:02.209Z,37.52
2023-03-21T13:05:01.858Z,37.40
2023-03-21T13:09:01.587Z,37.34
2023-03-21T13:13:01.493Z,37.34
2023-03-21T13:17:02.251Z,37.25
2023-03-21T13:21:04.202Z,37.14
2023-03-21T13:25:01.424Z,37.01
2023-03-21T13:29:03.230Z,36.88
2023-03-21T13:33:01.370Z,36.78
2023-03-21T13:37:01.446Z,36.72
2023-03-21T13:41:01.303Z,36.62
2023-03-21T13:45:01.292Z,36.52
2023-03-21T13:49:01.235Z,36.45
2023-03-21T13:53:01.447Z,36.33
2023-03-21T13:57:01.724Z,36.23
2023-03-21T14:01:01.637Z,36.14
2023-03-21T14:05:06.272Z,36.07
2023-03-21T14:09:02.735Z,35.97
2023-03-21T14:13:01.924Z,35.92
2023-03-21T14:17:02.115Z,35.83
2023-03-21T14:21:02.362Z,35.73
2023-03-21T14:25:01.852Z,35.67
2023-03-21T14:29:02.738Z,35.60
2023-03-21T14:33:02.746Z,35.55
2023-03-21T14:37:02.391Z,35.50
2023-03-21T14:41:02.911Z,35.43
2023-03-21T14:45:02.784Z,35.34
2023-03-21T14:49:02.868Z,35.34
2023-03-21T14:53:03.086Z,35.23
2023-03-21T14:57:03.385Z,35.13
2023-03-21T15:01:03.477Z,35.08
2023-03-21T15:05:04.609Z,34.98
2023-03-21T15:09:03.840Z,34.92
2023-03-21T15:13:04.145Z,34.88
2023-03-21T15:17:04.252Z,34.82
2023-03-21T15:21:04.788Z,34.76
2023-03-21T15:25:04.652Z,34.72
2023-03-21T15:29:04.951Z,34.70
2023-03-21T15:33:05.155Z,34.67
2023-03-21T15:37:05.294Z,34.63
2023-03-21T15:41:05.516Z,34.61
2023-03-21T15:45:05.769Z,34.58
2023-03-21T15:49:05.920Z,34.53
2023-03-21T15:53:06.093Z,34.52
2023-03-21T15:57:06.335Z,34.45
2023-03-21T16:01:08.480Z,34.41
2023-03-21T16:05:06.845Z,34.62
2023-03-21T16:09:06.902Z,34.76
2023-03-21T16:13:07.159Z,36.17
2023-03-21T16:17:07.841Z,37.40
2023-03-21T16:21:07.541Z,37.78
2023-03-21T16:25:07.720Z,37.72
2023-03-21T16:29:07.945Z,37.57
2023-03-21T16:33:08.272Z,37.39
2023-03-21T16:37:08.399Z,37.26
2023-03-21T16:41:08.594Z,37.04
2023-03-21T16:45:08.524Z,36.95
2023-03-21T16:49:08.494Z,36.81
2023-03-21T16:53:08.430Z,36.75
2023-03-21T16:57:08.545Z,36.63
2023-03-21T17:01:08.394Z,36.47
2023-03-21T17:05:08.341Z,36.41
2023-03-21T17:09:08.300Z,36.37
2023-03-21T17:13:08.284Z,36.29
2023-03-21T17:17:08.304Z,36.21
2023-03-21T17:21:08.272Z,36.19
2023-03-21T17:25:08.395Z,36.10
2023-03-21T17:29:08.577Z,36.08
2023-03-21T17:33:08.723Z,35.99
2023-03-21T17:37:08.787Z,35.94
2023-03-21T17:41:09.373Z,35.92
2023-03-21T17:45:09.343Z,35.87
2023-03-21T17:49:09.155Z,35.87
2023-03-21T17:53:09.327Z,35.79
2023-03-21T17:57:09.202Z,35.75
2023-03-21T18:01:08.993Z,35.69
2023-03-21T18:05:09.097Z,35.66
2023-03-21T18:09:09.823Z,35.64
2023-03-21T18:13:08.976Z,35.60
2023-03-21T18:17:09.018Z,35.62
2023-03-21T18:21:09.025Z,35.58
2023-03-21T18:25:09.025Z,35.55
2023-03-21T18:30:13.260Z,35.46
2023-03-21T18:33:09.997Z,35.45
2023-03-21T18:37:10.027Z,35.42
2023-03-21T18:41:09.839Z,35.41
2023-03-21T18:45:09.008Z,35.39
2023-03-21T18:49:51.885Z,35.35
2023-03-21T18:53:10.036Z,35.28
2023-03-21T18:57:39.227Z,35.31
2023-03-21T19:01:10.011Z,35.20
2023-03-21T19:05:08.905Z,35.24
2023-03-21T19:09:09.891Z,35.22
2023-03-21T19:13:08.770Z,35.17
2023-03-21T19:18:06.523Z,35.19
2023-03-21T19:21:09.665Z,35.09
2023-03-21T19:25:08.694Z,35.07
2023-03-21T19:29:08.786Z,34.98
2023-03-21T19:33:08.531Z,34.90
2023-03-21T19:37:08.606Z,34.86
2023-03-21T19:41:08.511Z,34.78
2023-03-21T19:45:08.653Z,34.70
2023-03-21T19:49:08.627Z,34.72
2023-03-21T19:53:08.643Z,34.65
2023-03-21T19:57:08.785Z,34.61
2023-03-21T20:01:08.875Z,34.56
2023-03-21T20:05:08.884Z,34.55
2023-03-21T20:13:10.407Z,34.48
2023-03-21T20:17:08.888Z,34.50
2023-03-21T20:21:17.041Z,34.43
2023-03-21T20:25:09.754Z,34.43
2023-03-21T20:29:54.990Z,34.42
2023-03-21T20:33:09.655Z,34.39
2023-03-21T20:37:08.679Z,34.39
2023-03-21T20:41:08.892Z,34.41
2023-03-21T20:45:08.647Z,34.33
2023-03-21T20:49:08.663Z,34.31
2023-03-21T20:53:08.877Z,34.33
2023-03-21T20:57:09.078Z,34.34
2023-03-21T21:01:09.156Z,34.31
2023-03-21T21:05:28.667Z,34.28
2023-03-21T21:09:10.043Z,34.27
2023-03-21T21:13:08.992Z,34.23
2023-03-21T21:17:30.813Z,34.23
2023-03-21T21:21:10.387Z,34.18
2023-03-21T21:25:08.980Z,34.13
2023-03-21T21:29:08.949Z,34.11
2023-03-21T21:33:09.959Z,34.18
2023-03-21T21:37:09.040Z,34.18
2023-03-21T21:41:09.902Z,34.15
2023-03-21T21:45:09.265Z,34.15
2023-03-21T21:49:09.458Z,34.12
2023-03-21T21:53:09.577Z,34.09
2023-03-21T21:57:09.707Z,34.03
2023-03-21T22:01:09.909Z,34.02
2023-03-21T22:05:10.029Z,33.99
2023-03-21T22:09:10.142Z,33.95
2023-03-21T22:13:10.479Z,33.96
2023-03-21T22:17:10.464Z,33.94
2023-03-21T22:21:10.674Z,33.89
2023-03-21T22:25:10.728Z,33.87
2023-03-21T22:29:10.914Z,33.82
2023-03-21T22:33:11.509Z,33.83
2023-03-21T22:37:11.371Z,33.80
2023-03-21T22:41:11.458Z,33.81
2023-03-21T22:45:11.648Z,33.79
2023-03-21T22:49:11.890Z,33.75
2023-03-21T22:53:12.020Z,33.75
2023-03-21T22:57:12.347Z,33.71
2023-03-21T23:01:12.482Z,33.72
2023-03-21T23:05:12.575Z,33.69
2023-03-21T23:09:12.800Z,33.65
2023-03-21T23:13:12.991Z,33.64
2023-03-21T23:17:13.153Z,33.59
2023-03-21T23:21:13.484Z,33.54
2023-03-21T23:25:13.519Z,33.55
2023-03-21T23:29:13.788Z,33.57
2023-03-21T23:33:13.971Z,33.50
2023-03-21T23:37:14.134Z,33.45
2023-03-21T23:41:14.343Z,33.35
2023-03-21T23:45:14.521Z,33.35
2023-03-21T23:49:14.768Z,33.32
2023-03-21T23:53:14.955Z,33.30
2023-03-21T23:57:15.165Z,33.26
